createdAt,value
2024-01-17T00:00:00.380Z,2.33
2024-01-17T00:00:58.422Z,2.12
2024-01-17T00:01:58.348Z,2.10
2024-01-17T00:02:58.345Z,2.63
2024-01-17T00:03:58.421Z,2.31
2024-01-17T00:04:58.448Z,2.03
2024-01-17T00:05:58.480Z,1.80
2024-01-17T00:06:58.608Z,2.44
2024-01-17T00:07:58.484Z,2.64
2024-01-17T00:08:58.447Z,1.92
2024-01-17T00:09:58.395Z,1.87
2024-01-17T00:10:58.355Z,2.28
2024-01-17T00:11:58.426Z,2.11
2024-01-17T00:12:58.503Z,2.50
2024-01-17T00:13:58.401Z,2.58
2024-01-17T00:14:58.458Z,2.00
2024-01-17T00:15:58.469Z,2.51
2024-01-17T00:16:58.494Z,2.54
2024-01-17T00:17:58.444Z,1.82
2024-01-17T00:18:58.407Z,2.55
2024-01-17T00:19:58.492Z,2.29
2024-01-17T00:20:58.517Z,2.19
2024-01-17T00:21:58.468Z,2.11
2024-01-17T00:22:58.401Z,1.84
2024-01-17T00:23:58.438Z,2.06
2024-01-17T00:24:58.463Z,2.21
2024-01-17T00:25:58.460Z,1.98
2024-01-17T00:26:58.479Z,2.23
2024-01-17T00:27:58.470Z,2.14
2024-01-17T00:28:58.446Z,2.30
2024-01-17T00:29:58.708Z,2.16
2024-01-17T00:30:58.516Z,2.00
2024-01-17T00:31:58.423Z,2.64
2024-01-17T00:32:58.542Z,2.27
2024-01-17T00:33:58.520Z,2.06
2024-01-17T00:34:58.523Z,2.18
2024-01-17T00:35:58.537Z,2.31
2024-01-17T00:36:58.417Z,2.45
2024-01-17T00:37:58.471Z,1.90
2024-01-17T00:38:58.385Z,2.75
2024-01-17T00:39:58.486Z,2.18
2024-01-17T00:40:58.354Z,2.58
2024-01-17T00:41:58.485Z,2.07
2024-01-17T00:42:58.478Z,2.15
2024-01-17T00:43:58.481Z,2.13
2024-01-17T00:44:58.521Z,2.21
2024-01-17T00:45:58.345Z,1.96
2024-01-17T00:46:58.467Z,2.27
2024-01-17T00:47:58.685Z,2.05
2024-01-17T00:48:58.480Z,1.79
2024-01-17T00:49:58.357Z,2.10
2024-01-17T00:50:58.451Z,2.14
2024-01-17T00:51:58.523Z,2.33
2024-01-17T00:52:58.353Z,2.62
2024-01-17T00:53:58.420Z,2.06
2024-01-17T00:54:58.382Z,2.41
2024-01-17T00:55:58.364Z,2.18
2024-01-17T00:56:58.521Z,2.33
2024-01-17T00:57:58.373Z,1.93
2024-01-17T00:58:58.368Z,2.37
2024-01-17T00:59:58.409Z,2.07
2024-01-17T01:00:58.400Z,2.49
2024-01-17T01:01:58.466Z,2.31
2024-01-17T01:02:59.100Z,2.33
2024-01-17T01:03:58.413Z,2.38
2024-01-17T01:04:58.374Z,2.13
2024-01-17T01:05:58.411Z,2.36
2024-01-17T01:06:58.381Z,1.63
2024-01-17T01:07:58.615Z,2.34
2024-01-17T01:08:58.552Z,2.36
2024-01-17T01:09:58.376Z,1.83
2024-01-17T01:10:58.381Z,2.03
2024-01-17T01:11:58.503Z,2.31
2024-01-17T01:12:58.560Z,2.19
2024-01-17T01:13:58.397Z,2.11
2024-01-17T01:14:58.496Z,2.21
2024-01-17T01:15:58.460Z,2.13
2024-01-17T01:16:58.568Z,1.79
2024-01-17T01:17:58.699Z,2.25
2024-01-17T01:18:58.758Z,2.22
2024-01-17T01:19:58.564Z,2.13
2024-01-17T01:20:58.739Z,2.25
2024-01-17T01:21:58.636Z,2.59
2024-01-17T01:22:58.596Z,2.20
2024-01-17T01:23:58.756Z,2.26
2024-01-17T01:24:58.640Z,2.35
2024-01-17T01:25:58.703Z,2.02
2024-01-17T01:26:58.727Z,2.20
2024-01-17T01:27:58.716Z,2.35
2024-01-17T01:28:58.699Z,1.71
2024-01-17T01:29:58.779Z,2.60
2024-01-17T01:30:58.754Z,2.55
2024-01-17T01:31:58.709Z,2.23
2024-01-17T01:32:58.791Z,2.06
2024-01-17T01:33:58.933Z,2.21
2024-01-17T01:34:58.805Z,1.80
2024-01-17T01:35:58.868Z,1.97
2024-01-17T01:36:58.807Z,2.61
2024-01-17T01:37:58.819Z,2.11
2024-01-17T01:38:58.921Z,1.93
2024-01-17T01:39:58.848Z,2.19
2024-01-17T01:40:58.844Z,2.13
2024-01-17T01:41:58.918Z,2.83
2024-01-17T01:42:58.888Z,2.76
2024-01-17T01:43:58.917Z,2.11
2024-01-17T01:44:59.022Z,2.30
2024-01-17T01:45:58.996Z,2.41
2024-01-17T01:46:58.989Z,2.05
2024-01-17T01:47:59.102Z,2.01
2024-01-17T01:48:59.109Z,1.90
2024-01-17T01:49:59.046Z,1.75
2024-01-17T01:50:59.132Z,1.84
2024-01-17T01:51:59.071Z,2.29
2024-01-17T01:52:59.082Z,1.99
2024-01-17T01:53:59.168Z,2.04
2024-01-17T01:54:59.103Z,2.73
2024-01-17T01:55:59.183Z,2.18
2024-01-17T01:56:59.149Z,1.98
2024-01-17T01:57:59.163Z,2.19
2024-01-17T01:58:59.173Z,2.31
2024-01-17T01:59:59.229Z,2.18
2024-01-17T02:00:59.266Z,2.20
2024-01-17T02:01:59.230Z,2.13
2024-01-17T02:02:59.270Z,2.49
2024-01-17T02:03:59.384Z,2.40
2024-01-17T02:04:59.282Z,2.00
2024-01-17T02:05:59.324Z,2.57
2024-01-17T02:06:59.255Z,1.85
2024-01-17T02:07:59.272Z,2.16
2024-01-17T02:08:59.312Z,1.93
2024-01-17T02:09:59.314Z,2.07
2024-01-17T02:10:59.311Z,2.25
2024-01-17T02:11:59.428Z,2.13
2024-01-17T02:12:59.318Z,2.20
2024-01-17T02:13:59.324Z,2.44
2024-01-17T02:14:59.372Z,2.30
2024-01-17T02:15:59.376Z,2.20
2024-01-17T02:16:59.376Z,2.01
2024-01-17T02:17:59.482Z,2.19
2024-01-17T02:18:59.439Z,2.11
2024-01-17T02:19:59.428Z,2.47
2024-01-17T02:20:59.441Z,1.62
2024-01-17T02:21:59.456Z,2.10
2024-01-17T02:22:59.460Z,2.21
2024-01-17T02:23:59.496Z,2.23
2024-01-17T02:24:59.505Z,2.22
2024-01-17T02:25:59.641Z,2.27
2024-01-17T02:26:59.628Z,2.09
2024-01-17T02:27:59.623Z,2.06
2024-01-17T02:28:59.571Z,1.94
2024-01-17T02:29:59.654Z,2.19
2024-01-17T02:30:59.714Z,2.00
2024-01-17T02:31:59.900Z,2.06
2024-01-17T02:32:59.744Z,1.96
2024-01-17T02:33:59.892Z,2.49
2024-01-17T02:34:59.675Z,2.53
2024-01-17T02:35:59.817Z,2.17
2024-01-17T02:36:59.687Z,2.52
2024-01-17T02:37:59.713Z,2.33
2024-01-17T02:38:59.822Z,1.88
2024-01-17T02:39:59.730Z,2.57
2024-01-17T02:40:59.736Z,2.29
2024-01-17T02:41:59.767Z,1.97
2024-01-17T02:42:59.742Z,1.60
2024-01-17T02:43:59.758Z,1.88
2024-01-17T02:44:59.822Z,2.12
2024-01-17T02:45:59.812Z,2.28
2024-01-17T02:46:59.805Z,2.28
2024-01-17T02:47:59.885Z,2.15
2024-01-17T02:48:59.979Z,2.39
2024-01-17T02:49:59.873Z,1.98
2024-01-17T02:50:59.897Z,2.51
2024-01-17T02:51:59.857Z,2.76
2024-01-17T02:52:59.856Z,1.87
2024-01-17T02:53:59.984Z,2.41
2024-01-17T02:54:59.876Z,1.98
2024-01-17T02:55:59.936Z,1.94
2024-01-17T02:56:59.939Z,2.62
2024-01-17T02:57:59.920Z,2.12
2024-01-17T02:58:59.915Z,1.97
2024-01-17T03:00:00.154Z,2.14
2024-01-17T03:01:00.021Z,1.82
2024-01-17T03:01:59.929Z,2.69
2024-01-17T03:02:59.965Z,2.48
2024-01-17T03:03:59.970Z,1.99
2024-01-17T03:05:00.013Z,2.24
2024-01-17T03:06:00.081Z,2.16
2024-01-17T03:07:00.042Z,1.99
2024-01-17T03:08:00.064Z,2.04
2024-01-17T03:09:00.144Z,2.50
2024-01-17T03:10:00.109Z,2.57
2024-01-17T03:11:00.105Z,2.39
2024-01-17T03:12:00.371Z,2.17
2024-01-17T03:13:00.170Z,2.74
2024-01-17T03:14:00.164Z,2.45
2024-01-17T03:15:00.267Z,2.46
2024-01-17T03:16:00.329Z,2.55
2024-01-17T03:17:00.190Z,2.17
2024-01-17T03:18:00.382Z,2.12
2024-01-17T03:19:00.511Z,2.26
2024-01-17T03:20:00.337Z,1.80
2024-01-17T03:21:00.321Z,2.11
2024-01-17T03:22:00.266Z,2.13
2024-01-17T03:23:00.294Z,2.69
2024-01-17T03:24:00.352Z,2.55
2024-01-17T03:25:00.306Z,2.09
2024-01-17T03:26:00.315Z,2.30
2024-01-17T03:27:00.350Z,1.96
2024-01-17T03:28:00.331Z,2.53
2024-01-17T03:29:00.347Z,2.86
2024-01-17T03:30:00.471Z,2.59
2024-01-17T03:31:00.396Z,2.23
2024-01-17T03:32:00.479Z,2.46
2024-01-17T03:33:00.472Z,2.02
2024-01-17T03:34:00.528Z,2.07
2024-01-17T03:35:00.510Z,2.12
2024-01-17T03:36:00.561Z,2.23
2024-01-17T03:37:00.471Z,2.37
2024-01-17T03:38:00.488Z,2.12
2024-01-17T03:39:00.543Z,2.14
2024-01-17T03:40:00.559Z,2.59
2024-01-17T03:41:00.551Z,1.81
2024-01-17T03:42:00.585Z,2.14
2024-01-17T03:43:00.586Z,2.11
2024-01-17T03:44:00.589Z,2.20
2024-01-17T03:45:00.684Z,2.27
2024-01-17T03:46:00.688Z,1.96
2024-01-17T03:47:00.630Z,2.45
2024-01-17T03:48:00.795Z,2.60
2024-01-17T03:49:00.730Z,2.08
2024-01-17T03:50:00.653Z,2.42
2024-01-17T03:51:00.686Z,2.14
2024-01-17T03:52:00.709Z,2.12
2024-01-17T03:53:00.714Z,2.10
2024-01-17T03:54:00.815Z,2.57
2024-01-17T03:55:00.762Z,2.47
2024-01-17T03:56:00.798Z,2.28
2024-01-17T03:57:00.821Z,2.38
2024-01-17T03:58:00.811Z,2.71
2024-01-17T03:59:00.819Z,1.94
2024-01-17T04:00:00.909Z,2.20
2024-01-17T04:01:00.852Z,1.88
2024-01-17T04:02:00.851Z,2.24
2024-01-17T04:03:00.896Z,2.14
2024-01-17T04:04:00.979Z,2.10
2024-01-17T04:05:00.999Z,1.89
2024-01-17T04:06:00.965Z,2.76
2024-01-17T04:07:00.973Z,2.20
2024-01-17T04:08:00.982Z,2.46
2024-01-17T04:09:01.024Z,2.41
2024-01-17T04:10:00.999Z,2.33
2024-01-17T04:11:00.999Z,2.15
2024-01-17T04:12:01.063Z,2.36
2024-01-17T04:13:01.021Z,1.95
2024-01-17T04:14:01.067Z,2.13
2024-01-17T04:15:01.107Z,2.08
2024-01-17T04:16:01.126Z,2.22
2024-01-17T04:17:01.162Z,2.22
2024-01-17T04:18:01.249Z,2.13
2024-01-17T04:19:01.293Z,2.17
2024-01-17T04:20:01.307Z,1.65
2024-01-17T04:21:01.237Z,2.68
2024-01-17T04:22:01.235Z,2.08
2024-01-17T04:23:02.802Z,2.32
2024-01-17T04:24:01.291Z,2.31
2024-01-17T04:25:01.307Z,2.10
2024-01-17T04:26:01.245Z,2.69
2024-01-17T04:27:01.265Z,1.99
2024-01-17T04:28:01.238Z,1.59
2024-01-17T04:29:01.215Z,2.13
2024-01-17T04:30:01.289Z,2.30
2024-01-17T04:31:01.272Z,2.04
2024-01-17T04:32:01.233Z,2.34
2024-01-17T04:33:01.314Z,2.21
2024-01-17T04:34:01.479Z,2.18
2024-01-17T04:35:01.216Z,1.95
2024-01-17T04:36:01.254Z,1.83
2024-01-17T04:37:01.223Z,1.74
2024-01-17T04:38:01.224Z,2.06
2024-01-17T04:39:01.253Z,2.22
2024-01-17T04:40:01.221Z,2.31
2024-01-17T04:41:01.216Z,2.16
2024-01-17T04:42:01.302Z,1.99
2024-01-17T04:43:01.214Z,2.23
2024-01-17T04:44:08.881Z,2.66
2024-01-17T04:45:08.978Z,1.85
2024-01-17T04:46:08.876Z,1.99
2024-01-17T04:47:08.884Z,2.42
2024-01-17T04:48:09.229Z,2.20
2024-01-17T04:49:09.275Z,2.50
2024-01-17T04:50:08.935Z,2.59
2024-01-17T04:51:11.441Z,2.33
2024-01-17T04:52:08.885Z,2.82
2024-01-17T04:53:08.885Z,2.35
2024-01-17T04:54:08.892Z,2.33
2024-01-17T04:55:08.912Z,2.58
2024-01-17T04:56:08.884Z,1.94
2024-01-17T04:57:13.916Z,2.40
2024-01-17T04:58:08.889Z,1.75
2024-01-17T04:59:08.902Z,1.80
2024-01-17T05:00:08.960Z,2.55
2024-01-17T05:01:08.908Z,2.06
2024-01-17T05:02:08.901Z,2.17
2024-01-17T05:03:08.936Z,2.21
2024-01-17T05:04:08.902Z,1.92
2024-01-17T05:05:09.024Z,1.93
2024-01-17T05:06:09.036Z,2.33
2024-01-17T05:07:09.045Z,1.68
2024-01-17T05:08:08.922Z,1.97
2024-01-17T05:09:08.941Z,2.42
2024-01-17T05:10:09.013Z,1.94
2024-01-17T05:11:08.910Z,2.35
2024-01-17T05:12:11.210Z,1.90
2024-01-17T05:13:09.005Z,2.12
2024-01-17T05:14:08.921Z,2.23
2024-01-17T05:15:09.074Z,2.10
2024-01-17T05:16:08.922Z,2.60
2024-01-17T05:17:08.945Z,2.52
2024-01-17T05:18:08.987Z,2.21
2024-01-17T05:19:09.085Z,2.50
2024-01-17T05:20:08.935Z,2.34
2024-01-17T05:21:09.061Z,2.14
2024-01-17T05:22:08.952Z,2.21
2024-01-17T05:23:09.044Z,2.25
2024-01-17T05:24:08.975Z,1.98
2024-01-17T05:25:08.955Z,1.73
2024-01-17T05:26:08.961Z,1.86
2024-01-17T05:27:09.041Z,2.11
2024-01-17T05:28:08.963Z,2.57
2024-01-17T05:29:08.964Z,2.47
2024-01-17T05:30:09.501Z,2.25
2024-01-17T05:31:09.032Z,2.39
2024-01-17T05:32:08.978Z,2.13
2024-01-17T05:33:09.164Z,2.47
2024-01-17T05:34:09.092Z,1.90
2024-01-17T05:35:08.971Z,2.06
2024-01-17T05:36:09.096Z,2.43
2024-01-17T05:37:08.985Z,2.15
2024-01-17T05:38:08.975Z,1.98
2024-01-17T05:39:09.104Z,1.62
2024-01-17T05:40:08.977Z,2.23
2024-01-17T05:41:08.996Z,2.31
2024-01-17T05:42:09.099Z,1.92
2024-01-17T05:43:08.990Z,2.35
2024-01-17T05:44:08.984Z,2.41
2024-01-17T05:45:09.257Z,2.09
2024-01-17T05:46:19.586Z,2.27
2024-01-17T05:47:08.996Z,1.98
2024-01-17T05:48:09.068Z,2.10
2024-01-17T05:49:09.088Z,2.65
2024-01-17T05:50:08.993Z,1.74
2024-01-17T05:51:09.062Z,2.32
2024-01-17T05:52:08.994Z,2.59
2024-01-17T05:53:09.010Z,2.10
2024-01-17T05:54:09.064Z,2.66
2024-01-17T05:55:09.082Z,2.22
2024-01-17T05:56:09.027Z,2.27
2024-01-17T05:57:09.089Z,2.15
2024-01-17T05:58:09.002Z,2.47
2024-01-17T05:59:09.013Z,2.41
2024-01-17T06:00:09.110Z,2.33
2024-01-17T06:01:09.025Z,2.06
2024-01-17T06:02:09.008Z,2.63
2024-01-17T06:03:09.089Z,2.77
2024-01-17T06:04:09.077Z,1.86
2024-01-17T06:05:09.098Z,2.33
2024-01-17T06:06:09.066Z,2.32
2024-01-17T06:07:09.063Z,2.36
2024-01-17T06:08:09.028Z,1.79
2024-01-17T06:09:09.100Z,1.90
2024-01-17T06:10:09.039Z,2.18
2024-01-17T06:11:09.167Z,2.51
2024-01-17T06:12:09.137Z,2.24
2024-01-17T06:13:09.126Z,2.67
2024-01-17T06:14:09.159Z,2.15
2024-01-17T06:15:09.336Z,1.94
2024-01-17T06:16:09.217Z,2.42
2024-01-17T06:17:09.245Z,2.39
2024-01-17T06:18:09.337Z,1.98
2024-01-17T06:19:09.340Z,2.00
2024-01-17T06:20:09.325Z,2.19
2024-01-17T06:21:09.585Z,2.40
2024-01-17T06:22:09.389Z,2.12
2024-01-17T06:23:09.426Z,1.90
2024-01-17T06:24:09.518Z,2.23
2024-01-17T06:25:09.499Z,2.06
2024-01-17T06:26:09.510Z,2.00
2024-01-17T06:27:09.713Z,2.42
2024-01-17T06:28:09.558Z,2.02
2024-01-17T06:29:09.596Z,2.01
2024-01-17T06:30:09.890Z,2.20
2024-01-17T06:31:09.731Z,2.07
2024-01-17T06:32:09.651Z,2.52
2024-01-17T06:33:09.813Z,2.40
2024-01-17T06:34:09.795Z,2.08
2024-01-17T06:35:09.710Z,2.20
2024-01-17T06:36:09.760Z,2.25
2024-01-17T06:37:09.741Z,2.52
2024-01-17T06:38:09.769Z,2.83
2024-01-17T06:39:09.908Z,2.65
2024-01-17T06:40:09.933Z,2.30
2024-01-17T06:41:09.849Z,2.41
2024-01-17T06:42:10.067Z,2.24
2024-01-17T06:43:09.982Z,2.10
2024-01-17T06:44:09.932Z,2.20
2024-01-17T06:45:10.015Z,1.90
2024-01-17T06:46:09.971Z,2.50
2024-01-17T06:47:09.992Z,2.06
2024-01-17T06:48:10.216Z,2.72
2024-01-17T06:49:10.432Z,2.07
2024-01-17T06:50:10.165Z,2.14
2024-01-17T06:51:10.292Z,2.01
2024-01-17T06:52:10.127Z,2.31
2024-01-17T06:53:10.163Z,2.37
2024-01-17T06:54:10.249Z,2.05
2024-01-17T06:55:10.215Z,2.62
2024-01-17T06:56:10.196Z,2.05
2024-01-17T06:57:10.329Z,1.91
2024-01-17T06:58:10.238Z,2.10
2024-01-17T06:59:10.247Z,2.23
2024-01-17T07:00:10.309Z,2.04
2024-01-17T07:01:10.342Z,2.02
2024-01-17T07:02:10.292Z,2.47
2024-01-17T07:03:10.425Z,1.71
2024-01-17T07:04:10.378Z,2.43
2024-01-17T07:05:10.379Z,2.52
2024-01-17T07:06:10.481Z,2.06
2024-01-17T07:07:10.388Z,2.24
2024-01-17T07:08:10.494Z,2.38
2024-01-17T07:09:10.460Z,2.54
2024-01-17T07:10:10.423Z,2.18
2024-01-17T07:11:10.445Z,2.06
2024-01-17T07:12:10.506Z,2.27
2024-01-17T07:13:10.510Z,2.41
2024-01-17T07:14:10.501Z,2.31
2024-01-17T07:15:10.617Z,2.65
2024-01-17T07:16:10.551Z,2.80
2024-01-17T07:17:10.596Z,2.16
2024-01-17T07:18:10.664Z,2.16
2024-01-17T07:19:10.645Z,2.53
2024-01-17T07:20:10.674Z,2.05
2024-01-17T07:21:10.755Z,3.01
2024-01-17T07:22:10.731Z,1.76
2024-01-17T07:23:10.772Z,2.68
2024-01-17T07:24:10.828Z,2.35
2024-01-17T07:25:10.810Z,3.16
2024-01-17T07:26:10.818Z,2.76
2024-01-17T07:27:11.002Z,2.80
2024-01-17T07:28:10.900Z,2.68
2024-01-17T07:29:10.902Z,2.36
2024-01-17T07:30:11.021Z,2.74
2024-01-17T07:31:10.985Z,2.73
2024-01-17T07:32:10.960Z,2.52
2024-01-17T07:33:11.099Z,1.85
2024-01-17T07:34:11.111Z,2.40
2024-01-17T07:35:11.014Z,2.81
2024-01-17T07:36:11.067Z,2.32
2024-01-17T07:37:14.272Z,2.61
2024-01-17T07:38:11.047Z,2.75
2024-01-17T07:39:11.129Z,2.05
2024-01-17T07:40:11.049Z,3.10
2024-01-17T07:41:11.061Z,2.17
2024-01-17T07:42:11.078Z,2.96
2024-01-17T07:43:11.072Z,2.42
2024-01-17T07:44:11.051Z,2.48
2024-01-17T07:45:11.186Z,2.96
2024-01-17T07:46:11.063Z,3.16
2024-01-17T07:47:11.074Z,3.17
2024-01-17T07:48:11.145Z,2.66
2024-01-17T07:49:11.338Z,3.40
2024-01-17T07:50:11.076Z,2.91
2024-01-17T07:51:11.194Z,2.52
2024-01-17T07:52:11.092Z,3.47
2024-01-17T07:53:11.069Z,2.91
2024-01-17T07:54:11.094Z,2.49
2024-01-17T07:55:11.077Z,3.54
2024-01-17T07:56:11.105Z,3.26
2024-01-17T07:57:11.133Z,3.02
2024-01-17T07:58:11.084Z,3.10
2024-01-17T07:59:11.091Z,4.61
2024-01-17T08:00:11.138Z,3.16
2024-01-17T08:01:11.117Z,3.43
2024-01-17T08:02:11.089Z,3.48
2024-01-17T08:03:11.224Z,3.70
2024-01-17T08:04:11.215Z,3.74
2024-01-17T08:05:11.114Z,4.01
2024-01-17T08:06:11.169Z,3.57
2024-01-17T08:07:16.169Z,3.82
2024-01-17T08:08:11.105Z,3.53
2024-01-17T08:09:11.264Z,3.66
2024-01-17T08:10:11.105Z,3.72
2024-01-17T08:11:11.123Z,4.20
2024-01-17T08:12:11.221Z,3.65
2024-01-17T08:13:11.121Z,4.56
2024-01-17T08:14:11.123Z,3.94
2024-01-17T08:15:11.344Z,4.40
2024-01-17T08:16:11.113Z,4.18
2024-01-17T08:17:11.127Z,4.67
2024-01-17T08:18:11.233Z,5.57
2024-01-17T08:19:11.326Z,4.91
2024-01-17T08:20:11.165Z,4.55
2024-01-17T08:21:11.256Z,4.70
2024-01-17T08:22:11.238Z,4.75
2024-01-17T08:23:11.190Z,4.82
2024-01-17T08:24:11.248Z,5.10
2024-01-17T08:25:11.219Z,6.00
2024-01-17T08:26:11.227Z,4.72
2024-01-17T08:27:11.342Z,4.64
2024-01-17T08:28:11.286Z,5.18
2024-01-17T08:29:11.570Z,4.99
2024-01-17T08:30:11.740Z,5.54
2024-01-17T08:31:11.360Z,5.13
2024-01-17T08:32:11.366Z,4.92
2024-01-17T08:33:11.554Z,5.92
2024-01-17T08:34:11.628Z,5.42
2024-01-17T08:35:11.518Z,4.24
2024-01-17T08:36:11.499Z,5.85
2024-01-17T08:37:11.467Z,5.79
2024-01-17T08:38:11.499Z,5.07
2024-01-17T08:39:11.592Z,5.36
2024-01-17T08:40:11.546Z,5.98
2024-01-17T08:41:11.562Z,5.22
2024-01-17T08:42:11.621Z,5.07
2024-01-17T08:43:11.604Z,5.90
2024-01-17T08:44:11.637Z,6.21
2024-01-17T08:45:11.831Z,5.21
2024-01-17T08:46:11.666Z,4.93
2024-01-17T08:47:11.711Z,5.45
2024-01-17T08:48:11.840Z,5.56
2024-01-17T08:49:11.812Z,4.67
2024-01-17T08:50:11.754Z,5.90
2024-01-17T08:51:11.807Z,5.70
2024-01-17T08:52:11.790Z,5.47
2024-01-17T08:53:11.785Z,6.20
2024-01-17T08:54:12.088Z,5.31
2024-01-17T08:55:11.817Z,5.96
2024-01-17T08:56:11.829Z,5.80
2024-01-17T08:57:12.046Z,6.14
2024-01-17T08:58:11.873Z,5.97
2024-01-17T08:59:11.872Z,6.11
2024-01-17T09:00:11.925Z,6.19
2024-01-17T09:01:12.009Z,5.68
2024-01-17T09:02:11.908Z,5.61
2024-01-17T09:03:11.932Z,6.23
2024-01-17T09:04:11.916Z,6.16
2024-01-17T09:05:11.932Z,6.03
2024-01-17T09:06:11.974Z,6.45
2024-01-17T09:07:12.154Z,6.31
2024-01-17T09:08:12.147Z,7.00
2024-01-17T09:09:12.162Z,5.83
2024-01-17T09:20:30.243Z,6.08
2024-01-17T09:21:30.192Z,6.74
2024-01-17T09:22:30.197Z,6.36
2024-01-17T09:23:30.211Z,6.56
2024-01-17T09:24:30.180Z,6.87
2024-01-17T09:25:30.170Z,5.83
2024-01-17T09:26:30.236Z,5.81
2024-01-17T09:27:30.173Z,6.08
2024-01-17T09:28:30.185Z,6.18
2024-01-17T09:29:30.281Z,6.52
2024-01-17T09:30:30.252Z,6.80
2024-01-17T09:31:30.172Z,8.82
2024-01-17T09:32:30.218Z,8.29
2024-01-17T09:33:30.283Z,6.82
2024-01-17T09:34:30.459Z,7.90
2024-01-17T09:35:30.214Z,7.07
2024-01-17T09:36:30.238Z,7.35
2024-01-17T09:37:30.185Z,8.42
2024-01-17T09:38:30.292Z,7.67
2024-01-17T09:39:30.192Z,7.45
2024-01-17T09:40:30.176Z,7.87
2024-01-17T09:41:30.226Z,8.12
2024-01-17T09:42:30.182Z,7.87
2024-01-17T09:43:30.339Z,8.15
2024-01-17T09:44:30.216Z,10.03
2024-01-17T09:45:30.264Z,9.47
2024-01-17T09:46:30.295Z,10.19
2024-01-17T09:47:30.417Z,9.09
2024-01-17T09:48:30.578Z,9.47
2024-01-17T09:49:30.656Z,9.27
2024-01-17T09:50:30.589Z,8.41
2024-01-17T09:51:30.637Z,9.50
2024-01-17T09:52:30.706Z,9.64
2024-01-17T09:53:30.800Z,8.67
2024-01-17T09:54:30.783Z,9.11
2024-01-17T09:55:30.802Z,9.38
2024-01-17T09:56:30.904Z,7.73
2024-01-17T09:57:30.854Z,8.35
2024-01-17T09:58:30.867Z,8.23
2024-01-17T09:59:30.949Z,8.38
2024-01-17T10:00:30.956Z,9.55
2024-01-17T10:01:30.973Z,10.00
2024-01-17T10:02:31.015Z,10.48
2024-01-17T10:03:31.060Z,9.44
2024-01-17T10:04:30.991Z,10.78
2024-01-17T10:05:32.305Z,9.25
2024-01-17T10:06:31.137Z,9.48
2024-01-17T10:07:31.033Z,9.05
2024-01-17T10:08:31.076Z,9.79
2024-01-17T10:09:31.079Z,9.75
2024-01-17T10:10:31.096Z,9.55
2024-01-17T10:11:31.145Z,10.61
2024-01-17T10:12:31.781Z,10.69
2024-01-17T10:13:31.138Z,10.21
2024-01-17T10:14:31.205Z,9.72
2024-01-17T10:15:31.174Z,9.55
2024-01-17T10:16:31.201Z,9.59
2024-01-17T10:17:31.289Z,9.52
2024-01-17T10:18:31.307Z,11.25
2024-01-17T10:19:31.437Z,10.45
2024-01-17T10:20:31.399Z,10.12
2024-01-17T10:21:31.291Z,10.06
2024-01-17T10:22:31.304Z,9.65
2024-01-17T10:23:31.343Z,9.83
2024-01-17T10:24:31.353Z,9.90
2024-01-17T10:25:31.341Z,10.21
2024-01-17T10:26:31.443Z,11.88
2024-01-17T10:27:31.395Z,11.50
2024-01-17T10:28:31.409Z,10.46
2024-01-17T10:29:31.709Z,9.97
2024-01-17T10:30:31.615Z,10.32
2024-01-17T10:31:31.511Z,10.08
2024-01-17T10:32:31.553Z,10.90
2024-01-17T10:33:31.560Z,10.01
2024-01-17T10:34:31.624Z,9.68
2024-01-17T10:35:31.570Z,11.48
2024-01-17T10:36:31.612Z,11.15
2024-01-17T10:37:31.562Z,9.72
2024-01-17T10:38:31.604Z,10.30
2024-01-17T10:39:31.577Z,9.49
2024-01-17T10:40:31.627Z,9.95
2024-01-17T10:41:31.654Z,9.87
2024-01-17T10:42:31.654Z,10.26
2024-01-17T10:43:31.700Z,9.92
2024-01-17T10:44:31.785Z,9.39
2024-01-17T10:45:31.775Z,9.32
2024-01-17T10:46:31.784Z,9.09
2024-01-17T10:47:31.869Z,8.13
2024-01-17T10:48:32.010Z,10.23
2024-01-17T10:49:31.988Z,10.21
2024-01-17T10:50:31.939Z,9.31
2024-01-17T10:51:32.097Z,9.55
2024-01-17T10:52:31.967Z,9.35
2024-01-17T10:53:38.110Z,8.71
2024-01-17T10:54:33.090Z,9.15
2024-01-17T10:55:32.048Z,10.23
2024-01-17T10:56:32.153Z,9.68
2024-01-17T10:57:32.054Z,8.88
2024-01-17T10:58:32.062Z,9.91
2024-01-17T10:59:32.057Z,9.68
2024-01-17T11:00:32.131Z,10.27
2024-01-17T11:01:32.046Z,10.24
2024-01-17T11:02:32.080Z,9.79
2024-01-17T11:03:32.142Z,9.08
2024-01-17T11:04:32.090Z,9.72
2024-01-17T11:05:32.082Z,9.89
2024-01-17T11:06:32.066Z,9.81
2024-01-17T11:07:32.118Z,9.11
2024-01-17T11:08:32.160Z,9.37
2024-01-17T11:39:31.374Z,12.57
2024-01-17T11:40:31.411Z,17.97
2024-01-17T11:41:31.354Z,11.04
2024-01-17T11:42:31.327Z,8.10
2024-01-17T11:43:31.335Z,8.80
2024-01-17T11:44:31.416Z,8.48
2024-01-17T11:45:31.365Z,8.62
2024-01-17T11:46:31.339Z,9.04
2024-01-17T11:47:31.333Z,8.68
2024-01-17T11:48:31.468Z,8.51
2024-01-17T11:49:31.374Z,8.93
2024-01-17T11:50:31.373Z,8.35
2024-01-17T11:51:31.367Z,8.51
2024-01-17T11:52:31.360Z,7.97
2024-01-17T11:53:31.408Z,8.54
2024-01-17T11:54:31.395Z,7.76
2024-01-17T12:43:40.682Z,9.93
2024-01-17T12:44:40.720Z,9.23
2024-01-17T12:45:40.836Z,10.02
2024-01-17T12:46:40.695Z,9.90
2024-01-17T12:47:40.745Z,9.35
2024-01-17T12:48:40.785Z,10.37
2024-01-17T12:49:40.765Z,9.73
2024-01-17T12:50:40.758Z,9.68
2024-01-17T12:51:42.386Z,9.71
2024-01-17T12:52:40.700Z,9.64
2024-01-17T12:53:40.777Z,9.48
2024-01-17T12:54:40.709Z,9.75
2024-01-17T12:55:40.696Z,11.19
2024-01-17T12:56:40.762Z,11.09
2024-01-17T12:57:40.714Z,11.47
2024-01-17T12:58:40.719Z,9.53
2024-01-17T12:59:40.766Z,8.85
2024-01-17T13:00:40.947Z,9.42
2024-01-17T13:01:40.841Z,9.19
2024-01-17T13:02:40.867Z,9.44
2024-01-17T13:03:40.868Z,9.38
2024-01-17T13:04:40.943Z,9.10
2024-01-17T13:05:41.043Z,9.39
2024-01-17T13:06:41.081Z,7.71
2024-01-17T13:07:41.284Z,8.09
2024-01-17T13:08:41.073Z,8.90
2024-01-17T13:09:41.081Z,8.46
2024-01-17T13:10:41.114Z,8.38
2024-01-17T13:11:41.124Z,9.28
2024-01-17T13:12:41.169Z,8.17
2024-01-17T13:13:41.177Z,8.20
2024-01-17T13:14:46.209Z,8.46
2024-01-17T13:15:41.173Z,8.69
2024-01-17T13:16:41.186Z,8.40
2024-01-17T13:17:41.202Z,8.12
2024-01-17T13:18:41.328Z,8.75
2024-01-17T13:19:41.194Z,8.29
2024-01-17T13:20:41.228Z,7.97
2024-01-17T13:21:41.187Z,8.05
2024-01-17T13:22:41.200Z,8.11
2024-01-17T13:23:41.242Z,7.79
2024-01-17T13:24:41.272Z,8.65
2024-01-17T13:25:41.192Z,8.23
2024-01-17T13:26:41.233Z,8.69
2024-01-17T13:27:41.197Z,6.69
2024-01-17T13:28:41.214Z,7.42
2024-01-17T13:29:41.289Z,7.32
2024-01-17T13:30:41.209Z,7.62
2024-01-17T13:31:41.214Z,7.78
2024-01-17T13:32:41.326Z,7.89
2024-01-17T13:33:41.319Z,8.19
2024-01-17T13:34:41.467Z,7.49
2024-01-17T13:35:41.357Z,7.28
2024-01-17T13:36:41.249Z,7.49
2024-01-17T13:37:41.231Z,7.67
2024-01-17T13:38:41.330Z,6.76
2024-01-17T13:39:41.224Z,6.92
2024-01-17T13:40:41.260Z,7.21
2024-01-17T13:41:41.281Z,6.63
2024-01-17T13:42:41.298Z,6.78
2024-01-17T13:43:41.304Z,6.93
2024-01-17T13:44:41.367Z,7.55
2024-01-17T13:45:41.361Z,6.77
2024-01-17T13:46:41.377Z,5.66
2024-01-17T13:47:41.472Z,6.22
2024-01-17T13:48:41.497Z,6.71
2024-01-17T13:49:41.646Z,6.88
2024-01-17T13:50:41.489Z,7.42
2024-01-17T13:51:41.477Z,6.97
2024-01-17T13:52:41.498Z,6.74
2024-01-17T13:53:41.516Z,6.14
2024-01-17T13:54:41.508Z,7.51
2024-01-17T13:55:41.506Z,6.20
2024-01-17T13:56:41.554Z,6.66
2024-01-17T13:57:41.538Z,7.14
2024-01-17T13:58:41.538Z,5.87
2024-01-17T13:59:41.607Z,6.41
2024-01-17T14:00:41.585Z,6.00
2024-01-17T14:01:41.617Z,6.72
2024-01-17T14:02:41.674Z,6.30
2024-01-17T14:03:41.704Z,5.51
2024-01-17T14:04:41.737Z,7.17
2024-01-17T14:05:41.725Z,5.98
2024-01-17T14:06:41.812Z,6.23
2024-01-17T14:07:41.732Z,6.42
2024-01-17T14:08:41.774Z,5.92
2024-01-17T14:09:41.760Z,5.33
2024-01-17T14:10:41.787Z,6.08
2024-01-17T14:11:41.874Z,5.30
2024-01-17T14:12:41.811Z,6.15
2024-01-17T14:13:41.814Z,6.32
2024-01-17T14:14:41.885Z,6.58
2024-01-17T14:15:41.930Z,5.74
2024-01-17T14:16:41.889Z,5.69
2024-01-17T14:17:41.939Z,5.01
2024-01-17T14:18:42.032Z,5.71
2024-01-17T14:19:41.944Z,5.08
2024-01-17T14:20:41.944Z,5.64
2024-01-17T14:21:41.904Z,6.43
2024-01-17T14:22:41.934Z,6.79
2024-01-17T14:23:41.969Z,5.38
2024-01-17T14:24:41.949Z,6.09
2024-01-17T14:25:41.962Z,5.10
2024-01-17T14:26:43.339Z,5.21
2024-01-17T14:27:41.973Z,5.45
2024-01-17T14:28:42.017Z,5.89
2024-01-17T14:29:42.031Z,5.06
2024-01-17T14:30:42.021Z,5.17
2024-01-17T14:31:42.025Z,5.64
2024-01-17T14:32:42.115Z,6.23
2024-01-17T14:33:42.118Z,5.89
2024-01-17T14:34:42.114Z,5.53
2024-01-17T14:35:42.178Z,6.16
2024-01-17T14:36:42.089Z,5.48
2024-01-17T14:37:42.148Z,5.00
2024-01-17T14:38:42.170Z,5.92
2024-01-17T14:39:42.150Z,5.72
2024-01-17T14:40:42.155Z,4.79
2024-01-17T14:41:42.187Z,5.70
2024-01-17T14:42:42.241Z,5.76
2024-01-17T14:43:42.182Z,5.04
2024-01-17T14:44:42.207Z,5.55
2024-01-17T14:45:42.272Z,5.44